Terminal Aerodrome Forecast
Issued by NWS Raleigh/Durham, NC

Home | Current Version | Previous Version | Text Only | Print | Product List | Glossary On
Versions: 1 2 3 4 5 6 7 8 9 10 11 12 13 14 15 16 17 18 19 20 21 22 23 24 25 26 27 28
000
FTUS42 KRAH 261151 AAA
TAFRDU
TAF AMD
KRDU 261151Z 2612/2712 20008G18KT P6SM VCTS SCT020 OVC040CB
      TEMPO 2612/2615 VRB20G33KT 2SM TSRA BR SCT016 OVC030CB
     FM261500 21013G25KT P6SM VCTS SCT020 OVC040CB
      TEMPO 2615/2618 VRB20G33KT 2SM TSRA BR SCT018 OVC030CB
     FM261800 24015G27KT P6SM VCTS BKN035CB
      TEMPO 2618/2621 VRB25G38KT 2SM TSRA BR SCT020 OVC030CB
     FM262100 27014G26KT P6SM OVC070
     FM262300 30018G30KT P6SM SCT200=

USA.gov is the U.S. government's official web portal to all federal, state and local government web resources and services.